Belle Terre, New York
Current Conditions -  °F | °C
As of 6:56 AM on Monday 26 Jan 2015 (Local Time) from KISP Reporting Station
Light Snow Light Snow  
Wind Chill: -10°   Ceiling: 3000
Heat Index: -4°   Visibility: 2.5mi
Dew Point: -11°   Wind: 13mph
Humidity: 58%   Direction: 50°NE
Pressure: 30"   Gusts: 24mph
Location:  40.9503°N, 73.0617°W
Report Text: KISP 261156Z 05011G21KT 2 1/2SM -SN OVC030 M04/M11 A3000 RMK AO2 SFC VIS 5 SNB28 SLP159 P0000 60000 T10391111 11028 21039 56004
Loading
Personal Weather Stations






























Interactive Weather Map New forecast layout! Learn more

10-Day Weather Forecast

Advertisements
Track Severe Weather on mobile